< < Back
Terminal Aerodrome Forecast


Current Version              Previous Versions:   1  2  3  4  5  6  7  8  9  

Terminal Aerodrome Forecast

215
FTUS42 KCAE 010200 AAB
TAFAGS
TAF AMD
KAGS 010252Z 0103/0124 06008KT P6SM -RA OVC030
     FM010600 04005KT 6SM -RA OVC012
     FM011200 02005KT 3SM -RA BR OVC006=



Latest METAR

302
SAUS70 KWBC 011100 RRP
MTRAGS
METAR KAGS 011053Z AUTO 01005KT 5SM -RA BR BKN007 OVC011 03/02 A3053 RMK
AO2 CIG 004V009 SLP339 P0002 T00280022


USA.gov is the U.S. government's official web portal to all federal, state and local government web resources and services.